createdAt,value
2018-04-13T00:01:49.378Z,37.71
2018-04-13T00:04:27.525Z,38.03
2018-04-13T00:07:06.518Z,37.84
2018-04-13T00:09:44.603Z,37.68
2018-04-13T00:12:34.594Z,38.14
2018-04-13T00:15:19.128Z,38.21
2018-04-13T00:18:04.331Z,38.20
2018-04-13T00:20:50.182Z,38.01
2018-04-13T00:23:34.309Z,37.71
2018-04-13T00:26:12.878Z,37.67
2018-04-13T00:28:50.807Z,37.59
2018-04-13T00:31:34.761Z,37.07
2018-04-13T00:34:13.574Z,36.56
2018-04-13T00:37:00.237Z,36.79
2018-04-13T00:39:38.898Z,36.78
2018-04-13T00:42:17.050Z,37.33
2018-04-13T00:45:01.545Z,37.62
2018-04-13T00:47:46.208Z,37.24
2018-04-13T00:50:26.404Z,37.14
2018-04-13T00:53:41.457Z,36.89
2018-04-13T00:56:20.402Z,37.34
2018-04-13T00:59:04.387Z,37.18
2018-04-13T01:01:42.405Z,37.24
2018-04-13T01:04:26.808Z,37.11
2018-04-13T01:07:17.587Z,36.50
2018-04-13T01:10:02.297Z,36.83
2018-04-13T01:12:51.584Z,36.76
2018-04-13T01:15:29.860Z,36.33
2018-04-13T01:18:10.661Z,36.10
2018-04-13T01:20:48.655Z,35.56
2018-04-13T01:23:26.566Z,35.90
2018-04-13T01:26:11.527Z,36.46
2018-04-13T01:28:59.939Z,36.73
2018-04-13T01:31:45.351Z,36.48
2018-04-13T01:34:28.443Z,36.28
2018-04-13T01:37:12.108Z,36.64
2018-04-13T01:40:00.540Z,36.36
2018-04-13T01:42:46.666Z,36.40
2018-04-13T01:45:30.624Z,36.74
2018-04-13T01:48:14.140Z,36.97
2018-04-13T01:50:53.060Z,36.81
2018-04-13T01:53:32.515Z,35.93
2018-04-13T01:56:24.223Z,36.58
2018-04-13T01:59:10.060Z,36.72
2018-04-13T02:01:54.844Z,36.93
2018-04-13T02:04:33.594Z,36.83
2018-04-13T02:07:17.336Z,36.94
2018-04-13T02:10:07.207Z,36.61
2018-04-13T02:12:46.049Z,36.29
2018-04-13T02:15:24.251Z,36.53
2018-04-13T02:18:04.291Z,36.68
2018-04-13T02:20:48.817Z,36.64
2018-04-13T02:23:27.866Z,36.97
2018-04-13T02:26:05.760Z,36.46
2018-04-13T02:28:44.893Z,35.94
2018-04-13T02:31:23.292Z,35.50
2018-04-13T02:34:01.168Z,35.35
2018-04-13T02:36:40.609Z,35.10
2018-04-13T02:39:19.569Z,35.73
2018-04-13T02:42:03.551Z,36.32
2018-04-13T02:44:41.366Z,36.66
2018-04-13T02:47:25.295Z,36.66
2018-04-13T02:50:08.469Z,36.63
2018-04-13T02:52:48.028Z,36.32
2018-04-13T02:55:26.158Z,36.21
2018-04-13T02:58:09.329Z,36.48
2018-04-13T03:00:48.769Z,36.28
2018-04-13T03:03:32.940Z,36.14
2018-04-13T03:06:16.569Z,35.96
2018-04-13T03:08:55.164Z,35.59
2018-04-13T03:11:38.642Z,35.53
2018-04-13T03:14:23.225Z,35.22
2018-04-13T03:17:06.983Z,35.35
2018-04-13T03:19:45.794Z,35.57
2018-04-13T03:22:24.203Z,35.94
2018-04-13T03:25:06.496Z,36.43
2018-04-13T03:27:44.498Z,36.39
2018-04-13T03:30:28.304Z,35.92
2018-04-13T03:33:12.186Z,34.59
2018-04-13T03:35:56.558Z,34.98
2018-04-13T03:38:34.614Z,35.57
2018-04-13T03:44:00.855Z,35.95
2018-04-13T03:46:41.594Z,35.95
2018-04-13T03:49:23.077Z,35.89
2018-04-13T03:52:09.767Z,35.79
2018-04-13T03:54:48.161Z,35.98
2018-04-13T03:57:27.289Z,35.88
2018-04-13T04:00:08.230Z,36.01
2018-04-13T04:02:52.889Z,35.83
2018-04-13T04:05:32.391Z,35.42
2018-04-13T04:08:18.081Z,35.30
2018-04-13T04:10:56.119Z,35.78
2018-04-13T04:13:39.855Z,35.31
2018-04-13T04:16:19.137Z,34.76
2018-04-13T04:18:57.193Z,34.88
2018-04-13T04:21:51.733Z,34.83
2018-04-13T04:25:42.444Z,34.35
2018-04-13T04:28:20.634Z,35.27
2018-04-13T04:30:58.966Z,35.69
2018-04-13T04:33:37.311Z,35.97
2018-04-13T04:36:16.804Z,35.87
2018-04-13T04:38:55.952Z,36.09
2018-04-13T04:41:34.032Z,36.08
2018-04-13T04:44:17.872Z,35.70
2018-04-13T04:47:00.599Z,35.36
2018-04-13T04:49:38.551Z,35.59
2018-04-13T04:52:23.642Z,35.13
2018-04-13T04:55:09.675Z,34.77
2018-04-13T04:57:56.693Z,35.49
2018-04-13T05:00:34.857Z,35.61
2018-04-13T05:03:18.824Z,35.29
2018-04-13T05:05:58.298Z,34.66
2018-04-13T05:08:43.425Z,34.99
2018-04-13T05:11:23.068Z,35.55
2018-04-13T05:14:01.001Z,36.01
2018-04-13T05:16:41.211Z,35.97
2018-04-13T05:19:35.594Z,35.63
2018-04-13T05:22:24.699Z,34.76
2018-04-13T05:25:08.601Z,34.22
2018-04-13T05:28:01.747Z,33.88
2018-04-13T05:30:46.085Z,35.13
2018-04-13T05:33:37.381Z,35.91
2018-04-13T05:36:18.584Z,35.88
2018-04-13T05:41:48.995Z,36.00
2018-04-13T05:44:27.012Z,35.42
2018-04-13T05:47:22.259Z,35.89
2018-04-13T05:50:02.092Z,35.86
2018-04-13T05:52:48.589Z,35.58
2018-04-13T05:55:26.287Z,35.63
2018-04-13T05:58:12.249Z,35.78
2018-04-13T06:00:53.228Z,36.50
2018-04-13T06:03:31.743Z,36.51
2018-04-13T06:06:23.610Z,35.71
2018-04-13T06:09:03.895Z,35.73
2018-04-13T06:11:45.217Z,36.76
2018-04-13T06:14:24.404Z,36.32
2018-04-13T06:17:07.282Z,36.82
2018-04-13T06:19:51.839Z,37.22
2018-04-13T06:22:40.078Z,37.25
2018-04-13T06:25:25.276Z,36.00
2018-04-13T06:28:05.509Z,37.04
2018-04-13T06:37:16.643Z,37.45
2018-04-13T06:40:06.221Z,37.31
2018-04-13T06:42:50.879Z,37.19
2018-04-13T06:45:30.116Z,37.58
2018-04-13T06:48:09.050Z,37.96
2018-04-13T06:50:55.435Z,37.36
2018-04-13T06:53:34.893Z,37.92
2018-04-13T06:56:15.874Z,38.19
2018-04-13T06:59:08.747Z,38.28
2018-04-13T07:01:57.146Z,38.09
2018-04-13T07:04:50.898Z,38.31
2018-04-13T07:07:36.473Z,37.96
2018-04-13T07:13:18.501Z,37.57
2018-04-13T07:15:58.534Z,38.11
2018-04-13T07:18:57.590Z,37.99
2018-04-13T07:21:41.507Z,38.07
2018-04-13T07:24:19.657Z,38.13
2018-04-13T07:27:03.001Z,38.18
2018-04-13T07:29:48.880Z,37.55
2018-04-13T07:32:36.889Z,37.89
2018-04-13T07:35:14.892Z,38.20
2018-04-13T07:37:55.501Z,38.53
2018-04-13T07:40:38.682Z,38.66
2018-04-13T07:43:17.196Z,38.44
2018-04-13T07:46:03.844Z,38.63
2018-04-13T07:48:41.644Z,38.38
2018-04-13T07:51:23.852Z,38.43
2018-04-13T07:54:10.836Z,38.91
2018-04-13T07:56:56.494Z,38.83
2018-04-13T07:59:41.765Z,39.21
2018-04-13T08:02:19.712Z,39.07
2018-04-13T08:05:02.638Z,39.11
2018-04-13T08:07:41.580Z,38.83
2018-04-13T08:10:19.768Z,38.45
2018-04-13T08:13:06.377Z,38.19
2018-04-13T08:15:52.465Z,39.18
2018-04-13T08:18:40.268Z,39.39
2018-04-13T08:21:24.014Z,39.34
2018-04-13T08:24:02.660Z,38.53
2018-04-13T08:26:58.669Z,38.66
2018-04-13T08:29:42.818Z,39.36
2018-04-13T08:32:34.619Z,38.60
2018-04-13T08:35:21.150Z,38.74
2018-04-13T08:38:07.046Z,38.30
2018-04-13T08:40:59.818Z,38.00
2018-04-13T08:43:41.844Z,37.80
2018-04-13T08:46:22.688Z,38.24
2018-04-13T08:49:08.600Z,38.59
2018-04-13T08:51:47.323Z,39.28
2018-04-13T08:54:33.854Z,40.00
2018-04-13T08:57:24.397Z,40.99
2018-04-13T09:02:47.408Z,38.56
2018-04-13T09:08:30.872Z,39.83
2018-04-13T09:11:08.747Z,40.13
2018-04-13T09:14:01.903Z,40.19
2018-04-13T09:16:47.711Z,38.94
2018-04-13T09:19:26.993Z,39.60
2018-04-13T09:22:14.147Z,39.57
2018-04-13T09:24:53.957Z,40.08
2018-04-13T09:27:31.823Z,40.34
2018-04-13T09:30:16.721Z,40.31
2018-04-13T09:33:10.680Z,40.05
2018-04-13T09:35:54.266Z,40.37
2018-04-13T09:38:32.083Z,40.96
2018-04-13T09:41:24.485Z,40.99
2018-04-13T09:44:05.142Z,41.49
2018-04-13T09:46:53.954Z,41.88
2018-04-13T09:49:36.626Z,41.10
2018-04-13T09:52:14.756Z,41.44
2018-04-13T09:55:09.139Z,42.39
2018-04-13T09:58:07.031Z,41.98
2018-04-13T10:23:16.576Z,43.81
2018-04-13T10:25:55.085Z,43.82
2018-04-13T10:28:35.921Z,42.61
2018-04-13T10:31:16.778Z,42.45
2018-04-13T10:34:00.677Z,43.51
2018-04-13T10:36:55.416Z,43.60
2018-04-13T10:39:38.245Z,43.85
2018-04-13T10:42:18.793Z,44.25
2018-04-13T10:45:09.142Z,43.18
2018-04-13T10:48:03.003Z,42.57
2018-04-13T10:50:43.016Z,43.27
2018-04-13T10:53:21.162Z,43.26
2018-04-13T10:56:02.574Z,43.68
2018-04-13T10:58:41.393Z,44.30
2018-04-13T11:01:19.884Z,44.48
2018-04-13T11:04:07.735Z,43.99
2018-04-13T11:09:45.052Z,44.46
2018-04-13T11:12:26.703Z,44.47
2018-04-13T11:15:05.423Z,43.75
2018-04-13T11:18:03.429Z,43.03
2018-04-13T11:20:46.253Z,42.99
2018-04-13T11:23:37.633Z,43.41
2018-04-13T11:26:21.449Z,43.98
2018-04-13T11:29:19.442Z,42.87
2018-04-13T11:32:03.266Z,42.64
2018-04-13T11:34:48.778Z,42.30
2018-04-13T11:37:28.282Z,42.68
2018-04-13T11:40:07.976Z,42.28
2018-04-13T11:42:52.565Z,41.86
2018-04-13T11:45:33.000Z,42.77
2018-04-13T11:51:06.761Z,42.49
2018-04-13T11:53:53.382Z,41.98
2018-04-13T11:56:39.276Z,41.43
2018-04-13T11:59:33.872Z,41.75
2018-04-13T12:02:21.376Z,41.04
2018-04-13T12:05:11.380Z,40.15
2018-04-13T12:07:51.966Z,40.62
2018-04-13T12:10:31.114Z,39.66
2018-04-13T12:13:16.349Z,40.80
2018-04-13T12:16:07.463Z,41.09
2018-04-13T12:18:47.604Z,41.44
2018-04-13T12:21:33.210Z,39.86
2018-04-13T12:24:11.868Z,40.49
2018-04-13T12:26:53.724Z,40.06
2018-04-13T12:29:32.709Z,40.71
2018-04-13T12:32:10.929Z,39.88
2018-04-13T12:34:55.381Z,40.34
2018-04-13T12:37:33.814Z,41.57
2018-04-13T12:40:13.617Z,41.68
2018-04-13T12:42:54.522Z,41.16
2018-04-13T12:45:33.117Z,41.21
2018-04-13T12:48:12.340Z,41.56
2018-04-13T12:50:57.547Z,41.12
2018-04-13T12:53:36.268Z,42.46
2018-04-13T12:56:16.439Z,43.00
2018-04-13T12:58:57.000Z,41.87
2018-04-13T13:01:37.966Z,41.51
2018-04-13T13:04:16.282Z,41.12
2018-04-13T13:06:55.273Z,41.33
2018-04-13T13:09:34.847Z,41.26
2018-04-13T13:12:13.256Z,42.00
2018-04-13T13:14:53.644Z,42.10
2018-04-13T13:17:39.535Z,42.99
2018-04-13T13:20:18.653Z,41.50
2018-04-13T13:22:56.771Z,40.48
2018-04-13T13:25:40.912Z,39.58
2018-04-13T13:28:18.991Z,40.47
2018-04-13T13:30:57.027Z,40.94
2018-04-13T13:33:40.916Z,41.32
2018-04-13T13:36:20.107Z,41.53
2018-04-13T13:39:02.543Z,41.42
2018-04-13T13:41:44.022Z,41.36
2018-04-13T13:44:22.540Z,40.70
2018-04-13T13:47:04.847Z,40.88
2018-04-13T13:49:43.624Z,40.82
2018-04-13T13:52:21.627Z,40.96
2018-04-13T13:55:02.302Z,41.47
2018-04-13T13:57:41.553Z,41.23
2018-04-13T14:00:20.326Z,39.90
2018-04-13T14:03:03.803Z,38.80
2018-04-13T14:05:41.749Z,40.12
2018-04-13T14:08:22.721Z,39.26
2018-04-13T14:11:08.521Z,39.80
2018-04-13T14:13:46.647Z,40.32
2018-04-13T14:16:29.871Z,40.14
2018-04-13T14:19:11.048Z,39.62
2018-04-13T14:21:49.020Z,39.63
2018-04-13T14:24:29.394Z,40.00
2018-04-13T14:27:09.267Z,39.22
2018-04-13T14:29:47.369Z,39.37
2018-04-13T14:32:30.291Z,39.41
2018-04-13T14:35:09.185Z,40.18
2018-04-13T14:37:47.864Z,39.99
2018-04-13T14:40:31.972Z,39.94
2018-04-13T14:43:10.011Z,39.42
2018-04-13T14:45:49.106Z,39.73
2018-04-13T14:48:32.194Z,39.25
2018-04-13T14:51:10.546Z,39.17
2018-04-13T14:53:48.828Z,39.31
2018-04-13T14:56:28.090Z,39.41
2018-04-13T14:59:12.477Z,39.22
2018-04-13T15:01:53.322Z,40.07
2018-04-13T15:04:31.300Z,39.44
2018-04-13T15:07:09.212Z,39.18
2018-04-13T15:09:48.075Z,39.17
2018-04-13T15:12:28.071Z,38.87
2018-04-13T15:15:10.973Z,38.91
2018-04-13T15:17:49.242Z,38.56
2018-04-13T15:20:30.153Z,39.04
2018-04-13T15:23:09.436Z,39.17
2018-04-13T15:25:48.822Z,39.66
2018-04-13T15:28:31.065Z,39.07
2018-04-13T15:31:11.037Z,38.68
2018-04-13T15:33:51.403Z,39.64
2018-04-13T15:36:34.198Z,38.25
2018-04-13T15:39:13.257Z,39.61
2018-04-13T15:41:56.065Z,39.40
2018-04-13T15:44:40.382Z,39.88
2018-04-13T15:50:13.544Z,38.53
2018-04-13T15:52:53.452Z,38.69
2018-04-13T15:55:35.690Z,38.37
2018-04-13T15:58:14.218Z,38.59
2018-04-13T16:00:54.693Z,39.26
2018-04-13T16:03:36.739Z,37.49
2018-04-13T16:06:16.032Z,38.54
2018-04-13T16:08:57.689Z,38.24
2018-04-13T16:11:38.680Z,37.86
2018-04-13T16:14:16.928Z,37.68
2018-04-13T16:16:58.901Z,37.37
2018-04-13T16:19:37.805Z,37.82
2018-04-13T16:22:16.844Z,38.59
2018-04-13T16:25:01.418Z,37.95
2018-04-13T16:27:39.817Z,37.39
2018-04-13T16:30:18.813Z,37.21
2018-04-13T16:33:02.239Z,37.92
2018-04-13T16:35:40.430Z,38.36
2018-04-13T16:38:18.861Z,38.45
2018-04-13T16:41:02.230Z,39.31
2018-04-13T16:43:40.822Z,43.37
2018-04-13T16:46:19.497Z,43.22
2018-04-13T16:49:03.225Z,42.23
2018-04-13T16:51:42.085Z,40.64
2018-04-13T16:54:28.267Z,41.26
2018-04-13T16:57:10.027Z,40.31
2018-04-13T16:59:50.933Z,41.58
2018-04-13T17:02:40.672Z,40.76
2018-04-13T17:05:22.128Z,40.77
2018-04-13T17:08:04.362Z,39.93
2018-04-13T17:10:41.983Z,41.05
2018-04-13T17:13:22.704Z,41.04
2018-04-13T17:16:03.165Z,39.20
2018-04-13T17:18:43.269Z,38.44
2018-04-13T17:21:23.858Z,36.79
2018-04-13T17:24:04.337Z,35.60
2018-04-13T17:26:48.174Z,34.98
2018-04-13T17:29:26.353Z,34.83
2018-04-13T17:32:10.033Z,34.59
2018-04-13T17:34:48.117Z,34.72
2018-04-13T17:37:31.245Z,35.19
2018-04-13T17:40:11.417Z,35.26
2018-04-13T17:42:50.333Z,35.42
2018-04-13T17:45:32.626Z,36.08
2018-04-13T17:48:10.428Z,34.61
2018-04-13T17:50:49.316Z,34.73
2018-04-13T17:53:32.656Z,33.68
2018-04-13T17:56:10.854Z,33.92
2018-04-13T17:58:49.080Z,34.30
2018-04-13T18:01:30.239Z,34.22
2018-04-13T18:04:12.615Z,34.10
2018-04-13T18:06:53.593Z,34.02
2018-04-13T18:09:32.508Z,33.35
2018-04-13T18:12:10.558Z,34.46
2018-04-13T18:14:53.177Z,34.77
2018-04-13T18:17:31.794Z,33.95
2018-04-13T18:20:11.742Z,33.76
2018-04-13T18:22:51.551Z,33.47
2018-04-13T18:25:34.284Z,34.36
2018-04-13T18:28:12.659Z,34.25
2018-04-13T18:30:52.916Z,33.50
2018-04-13T18:33:33.485Z,32.94
2018-04-13T18:36:14.193Z,32.66
2018-04-13T18:38:55.341Z,33.24
2018-04-13T18:41:34.218Z,32.37
2018-04-13T18:44:14.315Z,33.26
2018-04-13T18:46:56.282Z,31.86
2018-04-13T18:49:36.749Z,33.93
2018-04-13T18:52:15.618Z,32.52
2018-04-13T18:54:58.167Z,32.54
2018-04-13T18:57:37.743Z,33.47
2018-04-13T19:00:15.770Z,32.54
2018-04-13T19:02:55.453Z,32.45
2018-04-13T19:05:35.653Z,32.36
2018-04-13T19:08:17.350Z,32.65
2018-04-13T19:10:58.382Z,32.38
2018-04-13T19:13:38.495Z,32.56
2018-04-13T19:16:16.622Z,31.74
2018-04-13T19:18:57.116Z,32.75
2018-04-13T19:21:37.687Z,32.34
2018-04-13T19:24:17.832Z,32.81
2018-04-13T19:26:59.311Z,32.88
2018-04-13T19:29:38.410Z,32.73
2018-04-13T19:32:20.372Z,32.96
2018-04-13T19:35:01.653Z,32.24
2018-04-13T19:37:40.504Z,31.88
2018-04-13T19:40:23.231Z,32.70
2018-04-13T19:43:02.618Z,33.20
2018-04-13T19:45:40.794Z,32.88
2018-04-13T19:48:23.803Z,32.73
2018-04-13T19:51:02.538Z,32.59
2018-04-13T19:53:42.340Z,32.53
2018-04-13T19:56:25.615Z,32.56
2018-04-13T19:59:03.775Z,32.87
2018-04-13T20:01:43.539Z,32.11
2018-04-13T20:07:03.855Z,32.82
2018-04-13T20:09:45.816Z,32.49
2018-04-13T20:12:24.915Z,32.53
2018-04-13T20:15:07.213Z,32.07
2018-04-13T20:17:45.956Z,32.39
2018-04-13T20:20:25.835Z,32.90
2018-04-13T20:23:07.887Z,32.57
2018-04-13T20:25:46.587Z,32.14
2018-04-13T20:28:28.993Z,32.53
2018-04-13T20:31:07.591Z,32.71
2018-04-13T20:33:50.182Z,32.55
2018-04-13T20:36:28.937Z,31.66
2018-04-13T20:39:08.497Z,32.33
2018-04-13T20:41:49.962Z,33.45
2018-04-13T20:44:28.960Z,32.83
2018-04-13T20:47:09.496Z,31.50
2018-04-13T20:49:49.822Z,32.95
2018-04-13T20:52:32.480Z,31.30
2018-04-13T20:55:11.224Z,30.15
2018-04-13T20:57:49.823Z,31.75
2018-04-13T21:00:30.814Z,31.41
2018-04-13T21:03:14.496Z,31.89
2018-04-13T21:05:52.637Z,31.46
2018-04-13T21:08:31.964Z,31.91
2018-04-13T21:11:13.647Z,30.73
2018-04-13T21:13:53.147Z,30.42
2018-04-13T21:16:31.218Z,30.41
2018-04-13T21:19:14.235Z,31.27
2018-04-13T21:21:52.930Z,31.10
2018-04-13T21:24:32.806Z,30.70
2018-04-13T21:27:14.555Z,30.27
2018-04-13T21:29:52.687Z,30.59
2018-04-13T21:32:33.142Z,30.57
2018-04-13T21:35:14.307Z,31.16
2018-04-13T21:37:52.521Z,30.04
2018-04-13T21:40:37.562Z,31.41
2018-04-13T21:43:17.695Z,30.44
2018-04-13T21:45:56.717Z,30.33
2018-04-13T21:48:39.178Z,30.56
2018-04-13T21:51:22.765Z,30.67
2018-04-13T21:54:01.009Z,31.91
2018-04-13T21:56:41.721Z,31.43
2018-04-13T21:59:20.489Z,30.74
2018-04-13T22:01:58.604Z,31.79
2018-04-13T22:04:41.485Z,31.29
2018-04-13T22:07:19.519Z,30.35
2018-04-13T22:09:57.622Z,31.32
2018-04-13T22:12:50.824Z,31.00
2018-04-13T22:15:29.063Z,30.99
2018-04-13T22:18:08.910Z,31.06
2018-04-13T22:20:47.608Z,30.72
2018-04-13T22:23:25.826Z,30.62
2018-04-13T22:26:03.752Z,30.45
2018-04-13T22:28:45.137Z,31.21
2018-04-13T22:31:23.662Z,31.43
2018-04-13T22:34:01.986Z,32.30
2018-04-13T22:36:43.622Z,32.14
2018-04-13T22:39:21.822Z,32.86
2018-04-13T22:42:00.187Z,31.83
2018-04-13T22:44:40.160Z,32.23
2018-04-13T22:47:18.237Z,31.92
2018-04-13T22:49:56.954Z,32.27
2018-04-13T22:52:35.914Z,32.69
2018-04-13T22:55:14.105Z,33.07
2018-04-13T22:57:52.577Z,32.74
2018-04-13T23:00:31.921Z,33.75
2018-04-13T23:03:10.837Z,33.07
2018-04-13T23:05:49.261Z,34.51
2018-04-13T23:08:31.158Z,33.96
2018-04-13T23:11:09.990Z,33.02
2018-04-13T23:13:48.036Z,33.88
2018-04-13T23:16:31.449Z,34.50
2018-04-13T23:19:09.803Z,34.26
2018-04-13T23:21:48.829Z,34.72
2018-04-13T23:24:27.655Z,34.00
2018-04-13T23:27:05.822Z,34.21
2018-04-13T23:29:44.083Z,33.90
2018-04-13T23:32:23.002Z,34.03
2018-04-13T23:35:02.048Z,34.58
2018-04-13T23:37:41.029Z,35.21
2018-04-13T23:40:19.184Z,35.32
2018-04-13T23:42:58.870Z,34.79
2018-04-13T23:45:43.605Z,35.19
2018-04-13T23:48:21.737Z,33.01
2018-04-13T23:50:59.741Z,33.04
2018-04-13T23:53:39.121Z,32.60
2018-04-13T23:56:17.705Z,34.20
2018-04-13T23:58:55.867Z,33.53
